createdAt,value
2023-03-11T00:00:48.974Z,27.40
2023-03-11T00:03:29.098Z,27.20
2023-03-11T00:05:58.839Z,27.70
2023-03-11T00:08:26.825Z,22.00
2023-03-11T00:10:56.709Z,25.70
2023-03-11T00:13:24.982Z,33.50
2023-03-11T00:16:00.521Z,36.40
2023-03-11T00:18:31.698Z,35.30
2023-03-11T00:21:01.242Z,25.60
2023-03-11T00:23:29.739Z,24.80
2023-03-11T00:25:59.952Z,29.70
2023-03-11T00:28:28.082Z,29.00
2023-03-11T00:30:56.136Z,29.70
2023-03-11T00:33:24.189Z,25.90
2023-03-11T00:35:52.192Z,20.00
2023-03-11T00:38:21.617Z,20.60
2023-03-11T00:40:50.179Z,18.40
2023-03-11T00:43:18.502Z,27.30
2023-03-11T00:45:52.242Z,19.10
2023-03-11T00:51:54.475Z,14.70
2023-03-11T00:55:03.347Z,13.10
2023-03-11T00:57:36.959Z,13.20
2023-03-11T01:00:16.308Z,13.50
2023-03-11T01:02:49.616Z,14.00
2023-03-11T01:05:30.705Z,15.40
2023-03-11T01:08:22.635Z,7.90
2023-03-11T01:11:08.788Z,8.30
2023-03-11T01:13:43.733Z,8.10
2023-03-11T01:16:16.701Z,7.70
2023-03-11T01:18:52.522Z,8.50
2023-03-11T01:21:26.100Z,8.80
2023-03-11T01:26:51.508Z,7.50
2023-03-11T01:29:25.113Z,7.90
2023-03-11T01:32:19.682Z,6.60
2023-03-11T01:38:30.324Z,6.00
2023-03-11T01:41:04.337Z,7.30
2023-03-11T01:43:57.030Z,7.00
2023-03-11T01:56:45.633Z,5.20
2023-03-11T01:59:54.342Z,5.00
2023-03-11T02:05:40.369Z,5.10
2023-03-11T02:08:15.567Z,5.70
2023-03-11T02:10:51.235Z,6.10
2023-03-11T02:13:24.366Z,7.10
2023-03-11T02:16:00.794Z,6.60
2023-03-11T02:18:50.150Z,5.00
2023-03-11T02:21:32.963Z,5.30
2023-03-11T02:24:35.893Z,5.80
2023-03-11T02:27:12.812Z,4.70
2023-03-11T02:29:51.635Z,4.70
2023-03-11T02:32:30.553Z,6.20
2023-03-11T02:35:23.447Z,6.50
2023-03-11T02:41:30.088Z,6.40
2023-03-11T02:44:03.934Z,5.30
2023-03-11T02:46:41.623Z,5.50
2023-03-11T02:49:10.928Z,9.10
2023-03-11T02:51:39.567Z,9.30
2023-03-11T02:54:08.022Z,7.60
2023-03-11T02:56:36.623Z,5.50
2023-03-11T02:59:05.009Z,7.40
2023-03-11T03:01:33.047Z,5.00
2023-03-11T03:04:01.191Z,4.40
2023-03-11T03:06:32.992Z,4.30
2023-03-11T03:09:01.053Z,4.50
2023-03-11T03:11:29.122Z,5.60
2023-03-11T03:13:57.623Z,5.50
2023-03-11T03:16:31.433Z,5.20
2023-03-11T03:19:05.077Z,8.00
2023-03-11T03:21:33.159Z,5.30
2023-03-11T03:24:01.267Z,6.10
2023-03-11T03:26:29.212Z,4.80
2023-03-11T03:28:57.705Z,7.10
2023-03-11T03:31:25.746Z,4.50
2023-03-11T03:33:53.786Z,7.50
2023-03-11T03:36:21.860Z,5.90
2023-03-11T03:39:30.406Z,6.30
2023-03-11T03:41:58.828Z,5.70
2023-03-11T03:44:28.118Z,6.30
2023-03-11T03:46:56.141Z,5.60
2023-03-11T03:49:24.114Z,6.90
2023-03-11T03:51:52.560Z,6.20
2023-03-11T03:54:33.421Z,5.00
2023-03-11T03:57:06.660Z,6.30
2023-03-11T03:59:37.401Z,5.20
2023-03-11T04:02:05.819Z,5.80
2023-03-11T04:04:36.751Z,8.30
2023-03-11T04:07:10.657Z,6.30
2023-03-11T04:09:40.664Z,5.90
2023-03-11T04:12:15.713Z,5.20
2023-03-11T04:14:44.493Z,4.90
2023-03-11T04:17:13.523Z,5.20
2023-03-11T04:19:41.694Z,6.50
2023-03-11T04:22:11.406Z,4.60
2023-03-11T04:24:40.138Z,4.10
2023-03-11T04:27:08.141Z,5.70
2023-03-11T04:29:37.711Z,6.70
2023-03-11T04:32:05.994Z,5.80
2023-03-11T04:34:34.471Z,7.10
2023-03-11T04:37:02.696Z,5.40
2023-03-11T04:39:33.007Z,8.90
2023-03-11T04:42:03.872Z,6.40
2023-03-11T04:44:37.840Z,6.00
2023-03-11T04:47:11.518Z,4.90
2023-03-11T04:49:40.076Z,6.20
2023-03-11T04:52:08.163Z,4.10
2023-03-11T04:54:42.344Z,5.00
2023-03-11T04:57:15.863Z,5.00
2023-03-11T04:59:49.706Z,6.40
2023-03-11T05:02:18.648Z,5.80
2023-03-11T05:05:26.449Z,4.60
2023-03-11T05:08:00.127Z,6.40
2023-03-11T05:10:47.369Z,5.10
2023-03-11T05:13:21.849Z,5.30
2023-03-11T05:15:56.009Z,5.00
2023-03-11T05:18:32.611Z,4.60
2023-03-11T05:21:00.947Z,5.20
2023-03-11T05:23:30.193Z,8.30
2023-03-11T05:26:06.006Z,8.70
2023-03-11T05:28:39.707Z,9.70
2023-03-11T05:31:13.713Z,6.40
2023-03-11T05:36:25.541Z,5.50
2023-03-11T05:38:53.712Z,5.20
2023-03-11T05:41:28.060Z,5.20
2023-03-11T05:44:02.103Z,4.90
2023-03-11T05:49:29.918Z,4.90
2023-03-11T05:52:06.312Z,5.30
2023-03-11T05:54:34.632Z,5.70
2023-03-11T05:57:02.761Z,6.90
2023-03-11T05:59:32.578Z,9.00
2023-03-11T06:02:03.982Z,18.30
2023-03-11T06:04:38.037Z,6.20
2023-03-11T06:07:13.233Z,3.80
2023-03-11T06:12:12.625Z,8.00
2023-03-11T06:15:13.018Z,4.10
2023-03-11T06:17:41.222Z,4.20
2023-03-11T06:20:10.128Z,4.00
2023-03-11T06:22:40.150Z,3.60
2023-03-11T06:25:09.270Z,4.30
2023-03-11T06:27:47.884Z,4.20
2023-03-11T06:30:16.318Z,4.40
2023-03-11T06:32:52.535Z,3.50
2023-03-11T06:35:21.244Z,4.20
2023-03-11T06:37:49.206Z,4.20
2023-03-11T06:40:22.707Z,4.60
2023-03-11T06:42:50.728Z,6.40
2023-03-11T06:45:25.066Z,5.00
2023-03-11T06:50:35.532Z,6.80
2023-03-11T06:53:34.524Z,6.30
2023-03-11T06:56:13.483Z,5.90
2023-03-11T06:59:19.262Z,4.40
2023-03-11T07:01:47.639Z,5.10
2023-03-11T07:04:24.137Z,4.60
2023-03-11T07:07:41.630Z,4.90
2023-03-11T07:10:11.289Z,4.80
2023-03-11T07:12:39.524Z,6.40
2023-03-11T07:15:16.301Z,4.60
2023-03-11T07:17:44.514Z,4.50
2023-03-11T07:20:13.001Z,6.00
2023-03-11T07:22:40.979Z,5.80
2023-03-11T07:25:09.266Z,5.50
2023-03-11T07:27:37.377Z,6.30
2023-03-11T07:30:05.885Z,5.50
2023-03-11T07:32:33.863Z,5.50
2023-03-11T07:35:01.967Z,5.60
2023-03-11T07:37:30.071Z,5.90
2023-03-11T07:39:58.147Z,5.60
2023-03-11T07:42:26.261Z,7.40
2023-03-11T07:44:55.212Z,13.50
2023-03-11T07:47:24.818Z,10.40
2023-03-11T07:49:57.324Z,9.80
2023-03-11T07:52:25.290Z,8.80
2023-03-11T07:54:56.736Z,7.30
2023-03-11T07:57:27.905Z,6.70
2023-03-11T07:59:55.951Z,7.00
2023-03-11T08:02:24.194Z,6.90
2023-03-11T08:04:52.150Z,6.50
2023-03-11T08:07:21.044Z,8.00
2023-03-11T08:09:49.303Z,7.60
2023-03-11T08:12:17.374Z,7.50
2023-03-11T08:14:45.395Z,6.90
2023-03-11T08:17:13.460Z,7.40
2023-03-11T08:19:41.328Z,7.00
2023-03-11T08:22:09.244Z,6.10
2023-03-11T08:24:37.377Z,8.10
2023-03-11T08:27:05.785Z,11.80
2023-03-11T08:29:34.027Z,23.30
2023-03-11T08:32:03.943Z,32.70
2023-03-11T08:34:33.042Z,15.40
2023-03-11T08:37:01.616Z,12.60
2023-03-11T08:39:29.562Z,6.80
2023-03-11T08:41:57.560Z,7.90
2023-03-11T08:44:25.481Z,7.50
2023-03-11T08:46:53.594Z,7.00
2023-03-11T08:49:24.014Z,11.50
2023-03-11T08:51:54.122Z,11.40
2023-03-11T08:54:22.446Z,10.60
2023-03-11T08:56:52.735Z,8.00
2023-03-11T08:59:20.800Z,10.30
2023-03-11T09:01:48.875Z,8.10
2023-03-11T09:04:17.080Z,10.90
2023-03-11T09:06:45.252Z,12.60
2023-03-11T09:09:13.420Z,9.30
2023-03-11T09:11:42.094Z,8.80
2023-03-11T09:14:10.056Z,15.20
2023-03-11T09:16:38.148Z,9.60
2023-03-11T09:19:07.813Z,11.90
2023-03-11T09:21:37.114Z,12.10
2023-03-11T09:24:06.028Z,8.80
2023-03-11T09:26:34.127Z,10.60
2023-03-11T09:29:02.209Z,11.10
2023-03-11T09:31:30.420Z,11.20
2023-03-11T09:33:58.538Z,10.80
2023-03-11T09:36:26.576Z,14.30
2023-03-11T09:38:54.712Z,15.40
2023-03-11T09:41:55.261Z,9.00
2023-03-11T09:44:42.408Z,7.70
2023-03-11T09:47:25.594Z,7.90
2023-03-11T09:50:15.254Z,8.20
2023-03-11T09:52:45.203Z,10.40
2023-03-11T09:55:34.202Z,11.10
2023-03-11T09:58:09.939Z,10.00
2023-03-11T10:00:38.244Z,9.50
2023-03-11T10:03:15.616Z,8.60
2023-03-11T10:05:45.442Z,9.10
2023-03-11T10:08:24.162Z,8.30
2023-03-11T10:11:13.092Z,8.90
2023-03-11T10:14:25.123Z,12.20
2023-03-11T10:16:57.574Z,14.60
2023-03-11T10:19:52.084Z,11.50
2023-03-11T10:22:27.917Z,12.60
2023-03-11T10:25:05.572Z,12.40
2023-03-11T10:27:49.141Z,10.60
2023-03-11T10:30:45.512Z,11.80
2023-03-11T10:33:25.630Z,13.40
2023-03-11T10:35:56.963Z,12.50
2023-03-11T10:38:35.494Z,13.30
2023-03-11T10:41:11.216Z,13.10
2023-03-11T10:43:45.219Z,12.90
2023-03-11T10:46:21.292Z,16.80
2023-03-11T10:48:49.357Z,18.40
2023-03-11T10:51:23.005Z,14.50
2023-03-11T10:53:53.897Z,13.40
2023-03-11T10:56:36.265Z,13.60
2023-03-11T10:59:06.519Z,18.00
2023-03-11T11:01:34.613Z,22.00
2023-03-11T11:04:02.859Z,29.60
2023-03-11T11:06:37.558Z,34.80
2023-03-11T11:09:21.293Z,26.70
2023-03-11T11:12:12.306Z,15.20
2023-03-11T11:14:52.075Z,13.10
2023-03-11T11:17:25.964Z,12.30
2023-03-11T11:19:56.988Z,16.70
2023-03-11T11:22:25.987Z,13.80
2023-03-11T11:24:56.013Z,15.60
2023-03-11T11:27:26.730Z,14.20
2023-03-11T11:30:09.851Z,14.80
2023-03-11T11:32:38.352Z,16.00
2023-03-11T11:35:07.946Z,13.70
2023-03-11T11:37:39.603Z,13.30
2023-03-11T11:40:30.005Z,17.10
2023-03-11T11:43:12.198Z,11.80
2023-03-11T11:45:42.952Z,10.80
2023-03-11T11:48:22.803Z,9.60
2023-03-11T11:51:15.459Z,8.60
2023-03-11T11:53:57.741Z,9.90
2023-03-11T11:56:26.960Z,11.40
2023-03-11T11:58:55.626Z,9.20
2023-03-11T12:01:37.088Z,9.50
2023-03-11T12:04:31.775Z,7.50
2023-03-11T12:07:08.478Z,9.60
2023-03-11T12:09:43.599Z,8.80
2023-03-11T12:12:33.126Z,8.70
2023-03-11T12:15:21.150Z,7.50
2023-03-11T12:17:52.123Z,8.90
2023-03-11T12:20:56.262Z,8.20
2023-03-11T12:23:43.018Z,8.70
2023-03-11T12:26:20.278Z,9.10
2023-03-11T12:28:57.732Z,8.90
2023-03-11T12:31:32.101Z,9.80
2023-03-11T12:34:03.320Z,9.30
2023-03-11T12:36:34.777Z,9.10
2023-03-11T12:39:06.189Z,9.10
2023-03-11T12:41:41.344Z,9.90
2023-03-11T12:44:39.416Z,10.20
2023-03-11T12:47:35.682Z,8.80
2023-03-11T12:50:43.768Z,9.40
2023-03-11T12:53:18.101Z,8.90
2023-03-11T12:56:40.587Z,9.60
2023-03-11T12:59:45.493Z,9.30
2023-03-11T13:02:54.825Z,10.50
2023-03-11T13:05:59.676Z,9.30
2023-03-11T13:08:34.334Z,11.80
2023-03-11T13:11:34.209Z,11.70
2023-03-11T13:14:23.963Z,9.80
2023-03-11T13:16:52.168Z,10.80
2023-03-11T13:19:55.657Z,11.60
2023-03-11T13:22:42.629Z,11.40
2023-03-11T13:25:49.930Z,10.70
2023-03-11T13:28:44.351Z,11.10
2023-03-11T13:31:38.464Z,10.30
2023-03-11T13:34:38.540Z,9.90
2023-03-11T13:37:31.176Z,11.50
2023-03-11T13:40:02.551Z,9.90
2023-03-11T13:42:35.748Z,12.30
2023-03-11T13:45:06.945Z,9.40
2023-03-11T13:47:36.856Z,10.90
2023-03-11T13:50:22.881Z,12.20
2023-03-11T13:52:53.871Z,10.40
2023-03-11T13:55:28.128Z,10.30
2023-03-11T13:57:57.482Z,11.20
2023-03-11T14:00:29.074Z,8.60
2023-03-11T14:03:01.360Z,10.60
2023-03-11T14:05:35.419Z,9.40
2023-03-11T14:08:13.662Z,9.90
2023-03-11T14:10:52.207Z,9.60
2023-03-11T14:13:20.816Z,10.80
2023-03-11T14:15:57.669Z,11.10
2023-03-11T14:18:30.555Z,10.40
2023-03-11T14:20:59.687Z,12.70
2023-03-11T14:23:33.377Z,13.50
2023-03-11T14:26:05.387Z,9.80
2023-03-11T14:28:37.220Z,10.30
2023-03-11T14:31:05.792Z,10.40
2023-03-11T14:33:33.728Z,12.40
2023-03-11T14:36:11.409Z,12.70
2023-03-11T14:38:43.821Z,12.60
2023-03-11T14:41:15.634Z,13.30
2023-03-11T14:43:49.318Z,11.50
2023-03-11T14:46:25.760Z,11.00
2023-03-11T14:48:56.467Z,10.30
2023-03-11T14:51:31.944Z,14.30
2023-03-11T14:54:08.577Z,13.50
2023-03-11T14:56:42.175Z,15.60
2023-03-11T14:59:29.127Z,16.30
2023-03-11T15:02:03.112Z,16.00
2023-03-11T15:04:34.550Z,15.70
2023-03-11T15:07:04.685Z,16.50
2023-03-11T15:09:33.167Z,15.60
2023-03-11T15:12:04.341Z,14.80
2023-03-11T15:14:38.054Z,14.70
2023-03-11T15:17:41.334Z,15.40
2023-03-11T15:20:24.567Z,16.00
2023-03-11T15:23:00.715Z,14.20
2023-03-11T15:25:38.838Z,16.30
2023-03-11T15:28:27.547Z,17.90
2023-03-11T15:31:15.689Z,16.30
2023-03-11T15:33:44.478Z,13.20
2023-03-11T15:36:31.195Z,13.90
2023-03-11T15:39:15.268Z,12.70
2023-03-11T15:41:57.673Z,13.10
2023-03-11T15:44:30.938Z,15.60
2023-03-11T15:47:01.977Z,16.50
2023-03-11T15:49:30.470Z,21.60
2023-03-11T15:52:00.060Z,16.80
2023-03-11T15:54:28.788Z,15.50
2023-03-11T15:56:58.612Z,16.00
2023-03-11T15:59:28.026Z,14.60
2023-03-11T16:01:56.049Z,14.90
2023-03-11T16:04:24.248Z,16.00
2023-03-11T16:07:07.144Z,18.40
2023-03-11T16:09:36.270Z,14.70
2023-03-11T16:12:14.195Z,15.90
2023-03-11T16:14:42.326Z,14.10
2023-03-11T16:17:14.273Z,15.70
2023-03-11T16:19:43.114Z,18.90
2023-03-11T16:22:31.143Z,17.80
2023-03-11T16:25:00.048Z,15.90
2023-03-11T16:27:28.303Z,15.70
2023-03-11T16:29:56.693Z,16.70
2023-03-11T16:32:24.773Z,15.00
2023-03-11T16:34:52.671Z,15.30
2023-03-11T16:37:21.266Z,15.10
2023-03-11T16:39:49.159Z,14.20
2023-03-11T16:42:26.167Z,19.30
2023-03-11T16:44:54.025Z,18.40
2023-03-11T16:47:21.884Z,16.40
2023-03-11T16:49:53.468Z,17.40
2023-03-11T16:52:23.098Z,15.60
2023-03-11T16:54:51.493Z,16.40
2023-03-11T16:57:19.454Z,17.30
2023-03-11T16:59:47.366Z,16.40
2023-03-11T17:02:15.497Z,15.60
2023-03-11T17:04:43.536Z,15.60
2023-03-11T17:07:11.868Z,13.60
2023-03-11T17:09:39.946Z,15.20
2023-03-11T17:12:08.279Z,13.30
2023-03-11T17:14:36.195Z,12.40
2023-03-11T17:17:04.280Z,13.30
2023-03-11T17:19:32.229Z,13.60
2023-03-11T17:22:00.456Z,13.60
2023-03-11T17:24:29.785Z,14.10
2023-03-11T17:26:57.747Z,13.70
2023-03-11T17:29:25.789Z,13.40
2023-03-11T17:31:53.818Z,14.40
2023-03-11T17:34:21.883Z,15.10
2023-03-11T17:36:49.945Z,15.50
2023-03-11T17:39:18.037Z,14.90
2023-03-11T17:41:46.768Z,14.20
2023-03-11T17:44:15.522Z,14.80
2023-03-11T17:46:43.631Z,15.80
2023-03-11T17:49:14.605Z,14.20
2023-03-11T17:51:42.683Z,17.20
2023-03-11T17:54:10.674Z,16.20
2023-03-11T17:56:39.171Z,14.00
2023-03-11T17:59:07.129Z,16.60
2023-03-11T18:01:35.308Z,33.20
2023-03-11T18:04:03.312Z,20.20
2023-03-11T18:06:31.563Z,17.00
2023-03-11T18:08:59.712Z,16.40
2023-03-11T18:11:28.426Z,15.20
2023-03-11T18:13:56.503Z,15.70
2023-03-11T18:16:28.785Z,18.40
2023-03-11T18:18:58.635Z,19.10
2023-03-11T18:21:30.237Z,19.20
2023-03-11T18:24:00.526Z,15.10
2023-03-11T18:26:30.090Z,15.70
2023-03-11T18:29:00.040Z,15.40
2023-03-11T18:31:29.758Z,16.50
2023-03-11T18:34:03.692Z,15.20
2023-03-11T18:36:36.145Z,16.40
2023-03-11T18:39:05.311Z,16.40
2023-03-11T18:41:35.540Z,18.20
2023-03-11T18:44:04.140Z,16.10
2023-03-11T18:46:32.907Z,16.90
2023-03-11T18:49:03.559Z,18.00
2023-03-11T18:51:32.898Z,16.00
2023-03-11T18:54:02.037Z,18.80
2023-03-11T18:56:33.643Z,17.40
2023-03-11T18:59:01.761Z,16.90
2023-03-11T19:01:31.068Z,16.30
2023-03-11T19:04:00.324Z,17.70
2023-03-11T19:06:29.701Z,19.00
2023-03-11T19:08:58.334Z,19.30
2023-03-11T19:11:26.571Z,17.80
2023-03-11T19:13:55.031Z,17.70
2023-03-11T19:16:26.081Z,20.40
2023-03-11T19:18:55.310Z,20.80
2023-03-11T19:21:25.938Z,17.40
2023-03-11T19:23:55.908Z,18.80
2023-03-11T19:26:43.744Z,17.50
2023-03-11T19:29:14.853Z,18.90
2023-03-11T19:31:43.919Z,17.60
2023-03-11T19:34:12.600Z,16.30
2023-03-11T19:36:40.858Z,13.80
2023-03-11T19:39:09.291Z,14.70
2023-03-11T19:41:37.905Z,15.80
2023-03-11T19:44:07.409Z,16.00
2023-03-11T19:46:36.478Z,16.50
2023-03-11T19:49:04.828Z,14.10
2023-03-11T19:51:48.695Z,15.60
2023-03-11T19:54:19.018Z,17.50
2023-03-11T19:56:48.213Z,16.60
2023-03-11T19:59:16.313Z,15.40
2023-03-11T20:01:44.440Z,16.40
2023-03-11T20:04:12.733Z,17.30
2023-03-11T20:06:40.866Z,18.70
2023-03-11T20:09:09.040Z,21.80
2023-03-11T20:11:40.822Z,24.10
2023-03-11T20:14:10.261Z,23.30
2023-03-11T20:16:38.443Z,21.70
2023-03-11T20:19:07.349Z,23.10
2023-03-11T20:21:39.412Z,22.50
2023-03-11T20:24:08.487Z,23.10
2023-03-11T20:26:37.549Z,24.80
2023-03-11T20:29:06.624Z,23.10
2023-03-11T20:31:36.446Z,24.20
2023-03-11T20:34:04.630Z,22.00
2023-03-11T20:36:34.012Z,21.40
2023-03-11T20:39:03.392Z,22.70
2023-03-11T20:41:40.281Z,22.10
2023-03-11T20:44:11.601Z,20.40
2023-03-11T20:46:45.570Z,21.30
2023-03-11T20:49:22.351Z,27.00
2023-03-11T20:51:57.462Z,26.60
2023-03-11T20:54:30.947Z,31.80
2023-03-11T20:57:04.354Z,24.70
2023-03-11T20:59:32.561Z,35.30
2023-03-11T21:02:48.387Z,27.40
2023-03-11T21:07:44.802Z,26.80
2023-03-11T21:10:13.039Z,25.40
2023-03-11T21:12:40.993Z,27.40
2023-03-11T21:15:10.250Z,26.40
2023-03-11T21:17:38.465Z,30.60
2023-03-11T21:20:06.895Z,26.50
2023-03-11T21:22:35.182Z,23.10
2023-03-11T21:25:03.646Z,21.80
2023-03-11T21:27:31.668Z,23.90
2023-03-11T21:30:00.157Z,23.50
2023-03-11T21:32:33.515Z,22.90
2023-03-11T21:35:02.436Z,23.00
2023-03-11T21:37:30.560Z,20.80
2023-03-11T21:39:58.731Z,20.00
2023-03-11T21:42:29.346Z,18.60
2023-03-11T21:44:57.445Z,18.20
2023-03-11T21:47:25.553Z,17.40
2023-03-11T21:49:53.554Z,19.20
2023-03-11T21:52:21.725Z,19.20
2023-03-11T21:54:49.674Z,19.10
2023-03-11T21:57:17.575Z,19.70
2023-03-11T22:00:08.323Z,19.00
2023-03-11T22:02:36.914Z,18.40
2023-03-11T22:05:05.201Z,18.00
2023-03-11T22:07:33.423Z,20.90
2023-03-11T22:10:01.474Z,19.60
2023-03-11T22:12:29.556Z,20.10
2023-03-11T22:14:57.628Z,19.30
2023-03-11T22:17:25.752Z,21.40
2023-03-11T22:19:53.790Z,20.70
2023-03-11T22:22:21.839Z,20.20
2023-03-11T22:24:49.766Z,20.00
2023-03-11T22:27:17.701Z,17.90
2023-03-11T22:29:45.588Z,18.60
2023-03-11T22:32:13.734Z,19.80
2023-03-11T22:34:43.224Z,16.90
2023-03-11T22:37:11.125Z,18.40
2023-03-11T22:39:39.120Z,18.80
2023-03-11T22:42:07.317Z,20.50
2023-03-11T22:44:35.420Z,21.20
2023-03-11T22:47:03.517Z,20.10
2023-03-11T22:49:31.733Z,24.20
2023-03-11T22:51:59.759Z,25.30
2023-03-11T22:54:27.971Z,24.80
2023-03-11T22:56:56.257Z,25.30
2023-03-11T22:59:27.116Z,21.40
2023-03-11T23:02:01.031Z,23.80
2023-03-11T23:04:29.174Z,23.50
2023-03-11T23:06:57.136Z,20.90
2023-03-11T23:09:25.650Z,19.80
2023-03-11T23:11:55.415Z,22.50
2023-03-11T23:14:28.041Z,18.80
2023-03-11T23:17:02.145Z,21.80
2023-03-11T23:19:30.268Z,21.30
2023-03-11T23:21:58.270Z,16.90
2023-03-11T23:24:26.296Z,17.70
2023-03-11T23:26:54.177Z,18.70
2023-03-11T23:29:22.216Z,20.20
2023-03-11T23:31:50.160Z,18.00
2023-03-11T23:34:18.099Z,21.00
2023-03-11T23:36:46.022Z,19.70
2023-03-11T23:39:13.955Z,18.40
2023-03-11T23:41:41.891Z,16.40
2023-03-11T23:44:09.927Z,16.80
2023-03-11T23:46:38.037Z,17.70
2023-03-11T23:49:06.039Z,17.30
2023-03-11T23:51:34.014Z,19.30
2023-03-11T23:54:01.895Z,21.60
2023-03-11T23:56:29.868Z,18.80
2023-03-11T23:58:57.904Z,20.20
